createdAt,value
2017-04-13T00:00:44.691Z,5.60
2017-04-13T00:01:42.661Z,5.33
2017-04-13T00:02:40.619Z,5.19
2017-04-13T00:03:38.564Z,5.47
2017-04-13T00:04:36.530Z,4.86
2017-04-13T00:05:34.444Z,5.10
2017-04-13T00:06:32.443Z,5.71
2017-04-13T00:07:30.396Z,4.84
2017-04-13T00:08:28.345Z,6.37
2017-04-13T00:09:26.254Z,5.11
2017-04-13T00:10:24.254Z,5.40
2017-04-13T00:11:22.180Z,5.44
2017-04-13T00:12:20.108Z,5.24
2017-04-13T00:13:18.039Z,4.66
2017-04-13T00:14:16.044Z,4.93
2017-04-13T00:15:13.999Z,5.46
2017-04-13T00:16:17.627Z,5.34
2017-04-13T00:17:15.581Z,5.21
2017-04-13T00:18:13.509Z,4.86
2017-04-13T00:19:11.415Z,5.49
2017-04-13T00:20:09.302Z,5.21
2017-04-13T00:21:07.232Z,5.13
2017-04-13T00:22:05.207Z,5.74
2017-04-13T00:23:03.143Z,5.21
2017-04-13T00:24:01.054Z,5.13
2017-04-13T00:24:58.976Z,5.19
2017-04-13T00:25:56.927Z,5.76
2017-04-13T00:26:54.848Z,5.20
2017-04-13T00:27:52.787Z,5.44
2017-04-13T00:28:50.724Z,4.70
2017-04-13T00:29:48.663Z,4.30
2017-04-13T00:30:46.628Z,5.46
2017-04-13T00:31:44.528Z,5.56
2017-04-13T00:32:42.553Z,5.66
2017-04-13T00:33:40.566Z,5.39
2017-04-13T00:34:38.446Z,5.26
2017-04-13T00:35:36.350Z,5.34
2017-04-13T00:36:34.262Z,5.57
2017-04-13T00:37:32.244Z,4.66
2017-04-13T00:38:30.159Z,5.53
2017-04-13T00:39:28.147Z,5.79
2017-04-13T00:40:26.037Z,4.93
2017-04-13T00:41:23.963Z,4.83
2017-04-13T00:42:21.918Z,4.97
2017-04-13T00:43:19.992Z,5.46
2017-04-13T00:44:18.011Z,5.57
2017-04-13T00:45:15.911Z,4.94
2017-04-13T00:46:13.841Z,5.77
2017-04-13T00:47:11.842Z,5.24
2017-04-13T00:48:09.745Z,5.96
2017-04-13T00:49:07.659Z,5.63
2017-04-13T00:50:05.555Z,5.37
2017-04-13T00:51:03.460Z,5.29
2017-04-13T00:52:01.376Z,6.16
2017-04-13T00:52:59.291Z,5.19
2017-04-13T00:53:57.263Z,6.00
2017-04-13T00:54:55.194Z,5.10
2017-04-13T00:55:53.083Z,5.79
2017-04-13T00:56:51.091Z,5.03
2017-04-13T00:57:48.976Z,6.63
2017-04-13T00:58:46.958Z,5.41
2017-04-13T00:59:44.827Z,5.60
2017-04-13T01:00:42.795Z,5.64
2017-04-13T01:01:40.726Z,5.47
2017-04-13T01:02:38.664Z,5.00
2017-04-13T01:03:36.631Z,5.06
2017-04-13T01:04:34.555Z,5.20
2017-04-13T01:05:32.493Z,5.86
2017-04-13T01:06:30.410Z,5.30
2017-04-13T01:07:28.299Z,5.40
2017-04-13T01:08:26.222Z,5.21
2017-04-13T01:09:24.154Z,5.46
2017-04-13T01:10:22.067Z,4.83
2017-04-13T01:11:20.011Z,5.43
2017-04-13T01:12:18.036Z,5.16
2017-04-13T01:13:15.998Z,5.41
2017-04-13T01:14:13.901Z,5.36
2017-04-13T01:15:11.915Z,4.80
2017-04-13T01:16:09.974Z,5.23
2017-04-13T01:17:07.952Z,5.47
2017-04-13T01:18:05.895Z,4.67
2017-04-13T01:19:04.415Z,4.89
2017-04-13T01:20:02.423Z,5.97
2017-04-13T01:21:00.331Z,5.40
2017-04-13T01:21:58.242Z,6.09
2017-04-13T01:22:56.148Z,4.60
2017-04-13T01:23:54.150Z,5.86
2017-04-13T01:24:52.138Z,5.17
2017-04-13T01:25:50.075Z,5.73
2017-04-13T01:26:48.025Z,5.11
2017-04-13T01:27:45.915Z,5.23
2017-04-13T01:28:43.885Z,5.07
2017-04-13T01:29:41.834Z,4.89
2017-04-13T01:30:39.772Z,6.16
2017-04-13T01:31:37.727Z,5.71
2017-04-13T01:32:35.712Z,5.20
2017-04-13T01:33:33.641Z,5.51
2017-04-13T01:34:31.538Z,5.56
2017-04-13T01:35:29.467Z,5.70
2017-04-13T01:36:27.485Z,5.60
2017-04-13T01:37:25.421Z,5.70
2017-04-13T01:38:23.337Z,4.89
2017-04-13T01:39:21.303Z,4.91
2017-04-13T01:40:19.243Z,5.69
2017-04-13T01:41:17.173Z,5.33
2017-04-13T01:42:15.059Z,5.47
2017-04-13T01:43:12.990Z,5.30
2017-04-13T01:44:10.882Z,5.53
2017-04-13T01:45:08.772Z,5.91
2017-04-13T01:46:06.924Z,4.79
2017-04-13T01:47:04.854Z,5.41
2017-04-13T01:48:02.757Z,5.56
2017-04-13T01:49:00.663Z,4.96
2017-04-13T01:49:58.574Z,5.57
2017-04-13T01:50:56.499Z,5.60
2017-04-13T01:51:54.559Z,5.47
2017-04-13T01:52:52.511Z,5.46
2017-04-13T01:53:50.419Z,4.99
2017-04-13T01:54:48.356Z,5.63
2017-04-13T01:55:46.283Z,5.30
2017-04-13T01:56:44.191Z,4.99
2017-04-13T01:57:42.102Z,5.77
2017-04-13T01:58:40.054Z,5.26
2017-04-13T01:59:38.027Z,5.73
2017-04-13T02:00:35.975Z,5.07
2017-04-13T02:01:33.999Z,5.24
2017-04-13T02:02:32.019Z,4.91
2017-04-13T02:03:29.959Z,5.49
2017-04-13T02:04:27.924Z,5.11
2017-04-13T02:05:26.488Z,6.01
2017-04-13T02:06:24.395Z,5.79
2017-04-13T02:07:22.378Z,5.01
2017-04-13T02:08:20.367Z,5.17
2017-04-13T02:09:18.293Z,4.83
2017-04-13T02:10:16.220Z,5.27
2017-04-13T02:11:14.137Z,5.79
2017-04-13T02:12:12.034Z,5.51
2017-04-13T02:13:09.999Z,5.74
2017-04-13T02:14:07.913Z,4.59
2017-04-13T02:15:05.839Z,5.70
2017-04-13T02:16:03.763Z,5.33
2017-04-13T02:17:01.751Z,4.93
2017-04-13T02:17:59.761Z,4.71
2017-04-13T02:18:57.639Z,5.17
2017-04-13T02:19:55.528Z,4.77
2017-04-13T02:20:53.434Z,4.59
2017-04-13T02:21:51.315Z,4.99
2017-04-13T02:22:49.223Z,5.10
2017-04-13T02:23:47.171Z,4.93
2017-04-13T02:24:45.062Z,5.71
2017-04-13T02:25:42.954Z,6.09
2017-04-13T02:26:40.867Z,5.41
2017-04-13T02:27:38.780Z,5.39
2017-04-13T02:28:36.673Z,6.13
2017-04-13T02:29:34.680Z,5.26
2017-04-13T02:30:32.614Z,5.26
2017-04-13T02:31:30.528Z,4.64
2017-04-13T02:32:28.492Z,4.80
2017-04-13T02:33:26.403Z,5.63
2017-04-13T02:34:24.296Z,5.31
2017-04-13T02:35:22.223Z,5.49
2017-04-13T02:36:20.147Z,4.91
2017-04-13T02:37:18.074Z,5.50
2017-04-13T02:38:16.015Z,5.77
2017-04-13T02:39:13.966Z,5.19
2017-04-13T02:40:11.859Z,5.19
2017-04-13T02:41:09.810Z,5.46
2017-04-13T02:42:07.739Z,5.69
2017-04-13T02:43:05.698Z,5.43
2017-04-13T02:44:03.660Z,4.84
2017-04-13T02:45:01.548Z,5.83
2017-04-13T02:45:59.467Z,5.39
2017-04-13T02:46:57.443Z,4.61
2017-04-13T02:47:55.382Z,5.53
2017-04-13T02:48:53.292Z,5.77
2017-04-13T02:49:51.207Z,5.07
2017-04-13T02:50:49.092Z,4.99
2017-04-13T02:51:47.119Z,5.11
2017-04-13T02:52:48.654Z,5.61
2017-04-13T02:53:46.570Z,5.27
2017-04-13T02:54:44.488Z,4.74
2017-04-13T02:55:42.363Z,5.74
2017-04-13T02:56:40.290Z,6.40
2017-04-13T02:57:38.190Z,5.49
2017-04-13T02:58:36.128Z,5.87
2017-04-13T02:59:34.080Z,4.80
2017-04-13T03:00:32.034Z,5.54
2017-04-13T03:01:30.003Z,6.14
2017-04-13T03:02:28.016Z,5.71
2017-04-13T03:03:25.909Z,5.30
2017-04-13T03:04:23.808Z,5.64
2017-04-13T03:05:21.741Z,5.50
2017-04-13T03:07:19.467Z,4.93
2017-04-13T03:08:17.370Z,5.96
2017-04-13T03:09:15.306Z,5.21
2017-04-13T03:10:13.247Z,5.04
2017-04-13T03:11:11.211Z,4.89
2017-04-13T03:12:09.096Z,5.16
2017-04-13T03:13:07.029Z,5.87
2017-04-13T03:14:04.930Z,5.59
2017-04-13T03:15:02.850Z,5.99
2017-04-13T03:16:00.935Z,6.57
2017-04-13T03:16:58.968Z,6.00
2017-04-13T03:17:56.868Z,6.27
2017-04-13T03:18:54.781Z,5.84
2017-04-13T03:19:52.715Z,6.09
2017-04-13T03:20:50.603Z,5.71
2017-04-13T03:21:48.501Z,5.17
2017-04-13T03:22:46.408Z,5.70
2017-04-13T03:23:44.380Z,5.59
2017-04-13T03:24:42.331Z,6.11
2017-04-13T03:25:40.246Z,4.87
2017-04-13T03:26:38.162Z,5.56
2017-04-13T03:27:36.207Z,5.97
2017-04-13T03:28:34.104Z,5.57
2017-04-13T03:29:32.050Z,5.94
2017-04-13T03:30:29.983Z,5.56
2017-04-13T03:31:27.939Z,5.87
2017-04-13T03:32:25.830Z,5.33
2017-04-13T03:33:23.772Z,4.94
2017-04-13T03:34:21.708Z,5.54
2017-04-13T03:35:19.625Z,5.47
2017-04-13T03:36:17.540Z,6.40
2017-04-13T03:37:15.435Z,5.44
2017-04-13T03:38:13.339Z,6.07
2017-04-13T03:39:11.239Z,6.11
2017-04-13T03:40:09.239Z,5.46
2017-04-13T03:41:07.149Z,5.63
2017-04-13T03:42:05.075Z,4.89
2017-04-13T03:43:02.984Z,5.54
2017-04-13T03:44:00.927Z,5.41
2017-04-13T03:44:58.843Z,5.17
2017-04-13T03:45:56.742Z,5.89
2017-04-13T03:46:54.671Z,5.37
2017-04-13T03:47:52.558Z,6.46
2017-04-13T03:48:50.444Z,5.53
2017-04-13T03:49:48.365Z,5.76
2017-04-13T03:50:46.312Z,5.49
2017-04-13T03:51:44.327Z,5.80
2017-04-13T03:52:42.216Z,5.56
2017-04-13T03:53:40.114Z,5.64
2017-04-13T03:54:38.090Z,6.00
2017-04-13T03:55:35.987Z,5.34
2017-04-13T03:56:33.971Z,5.99
2017-04-13T03:57:31.896Z,6.40
2017-04-13T03:58:29.867Z,5.83
2017-04-13T03:59:27.764Z,5.17
2017-04-13T04:00:25.723Z,5.26
2017-04-13T04:01:23.646Z,6.07
2017-04-13T04:02:21.551Z,5.47
2017-04-13T04:03:19.439Z,5.87
2017-04-13T04:04:17.387Z,5.21
2017-04-13T04:05:15.324Z,5.11
2017-04-13T04:06:13.253Z,5.69
2017-04-13T04:07:11.135Z,4.33
2017-04-13T04:08:09.042Z,4.51
2017-04-13T04:09:07.012Z,4.80
2017-04-13T04:10:04.950Z,5.11
2017-04-13T04:11:02.858Z,4.60
2017-04-13T04:12:00.879Z,4.66
2017-04-13T04:12:58.836Z,4.93
2017-04-13T04:13:56.719Z,4.44
2017-04-13T04:14:54.615Z,4.09
2017-04-13T04:15:52.525Z,4.17
2017-04-13T04:16:50.461Z,4.49
2017-04-13T04:17:48.364Z,4.81
2017-04-13T04:18:46.304Z,3.70
2017-04-13T04:19:44.191Z,4.64
2017-04-13T04:20:42.098Z,4.49
2017-04-13T04:21:40.009Z,4.60
2017-04-13T04:22:37.949Z,4.43
2017-04-13T04:23:35.891Z,5.04
2017-04-13T04:24:33.835Z,4.36
2017-04-13T04:25:31.723Z,4.36
2017-04-13T04:26:29.650Z,4.60
2017-04-13T04:27:27.610Z,4.56
2017-04-13T04:28:25.514Z,4.57
2017-04-13T04:29:23.422Z,4.71
2017-04-13T04:30:21.326Z,4.33
2017-04-13T04:31:19.251Z,4.10
2017-04-13T04:32:17.267Z,4.37
2017-04-13T04:33:15.151Z,4.20
2017-04-13T04:34:13.100Z,3.79
2017-04-13T04:35:10.999Z,3.66
2017-04-13T04:36:08.922Z,4.20
2017-04-13T04:37:06.822Z,4.60
2017-04-13T04:38:04.747Z,4.00
2017-04-13T04:39:02.732Z,4.16
2017-04-13T04:40:00.679Z,3.94
2017-04-13T04:40:58.625Z,4.11
2017-04-13T04:41:56.587Z,3.94
2017-04-13T04:42:54.478Z,3.61
2017-04-13T04:43:52.394Z,4.23
2017-04-13T04:44:50.367Z,4.29
2017-04-13T04:45:48.335Z,4.34
2017-04-13T04:46:46.238Z,3.87
2017-04-13T04:47:44.243Z,4.27
2017-04-13T04:48:42.258Z,4.31
2017-04-13T04:49:40.147Z,3.81
2017-04-13T04:50:38.079Z,4.29
2017-04-13T04:51:36.005Z,4.01
2017-04-13T04:52:33.962Z,3.53
2017-04-13T04:53:32.018Z,3.44
2017-04-13T04:54:29.970Z,4.06
2017-04-13T04:55:27.911Z,3.89
2017-04-13T04:56:25.848Z,3.47
2017-04-13T04:57:23.780Z,3.57
2017-04-13T04:58:21.715Z,3.97
2017-04-13T04:59:19.604Z,3.89
2017-04-13T05:00:17.519Z,4.26
2017-04-13T05:01:15.547Z,4.00
2017-04-13T05:02:13.501Z,3.69
2017-04-13T05:03:11.408Z,3.81
2017-04-13T05:04:09.348Z,4.04
2017-04-13T05:05:07.250Z,3.50
2017-04-13T05:06:05.168Z,3.76
2017-04-13T05:07:03.107Z,4.50
2017-04-13T05:08:01.027Z,3.99
2017-04-13T05:08:58.942Z,3.79
2017-04-13T05:09:56.871Z,3.81
2017-04-13T05:10:54.776Z,3.39
2017-04-13T05:11:52.690Z,3.56
2017-04-13T05:12:50.616Z,3.74
2017-04-13T05:13:48.551Z,3.23
2017-04-13T05:14:46.454Z,3.83
2017-04-13T05:15:44.347Z,3.71
2017-04-13T05:16:42.380Z,3.46
2017-04-13T05:17:40.316Z,3.39
2017-04-13T05:18:38.211Z,4.19
2017-04-13T05:19:37.295Z,4.01
2017-04-13T05:20:35.351Z,3.74
2017-04-13T05:21:33.303Z,3.53
2017-04-13T05:22:31.260Z,4.57
2017-04-13T05:23:29.343Z,4.37
2017-04-13T05:24:27.272Z,3.89
2017-04-13T05:25:25.162Z,3.71
2017-04-13T05:26:23.091Z,3.84
2017-04-13T05:27:20.984Z,4.10
2017-04-13T05:28:19.010Z,4.00
2017-04-13T05:29:16.928Z,3.54
2017-04-13T05:30:14.824Z,3.30
2017-04-13T05:31:12.725Z,4.10
2017-04-13T05:32:10.633Z,4.14
2017-04-13T05:33:08.539Z,3.93
2017-04-13T05:34:06.529Z,3.71
2017-04-13T05:35:04.415Z,4.21
2017-04-13T05:36:02.307Z,3.83
2017-04-13T05:37:00.235Z,4.17
2017-04-13T05:37:58.162Z,4.14
2017-04-13T05:38:56.059Z,4.09
2017-04-13T05:39:53.945Z,4.00
2017-04-13T05:40:51.886Z,4.54
2017-04-13T05:41:49.779Z,3.60
2017-04-13T05:42:47.695Z,4.91
2017-04-13T05:43:45.638Z,4.06
2017-04-13T05:44:43.543Z,4.01
2017-04-13T05:45:41.446Z,4.10
2017-04-13T05:46:39.335Z,3.67
2017-04-13T05:47:37.272Z,3.86
2017-04-13T05:48:35.249Z,3.89
2017-04-13T05:49:33.208Z,3.91
2017-04-13T05:50:31.139Z,4.16
2017-04-13T05:51:29.029Z,4.13
2017-04-13T05:52:26.965Z,4.20
2017-04-13T05:53:24.888Z,3.70
2017-04-13T05:54:22.768Z,3.94
2017-04-13T05:55:20.672Z,4.44
2017-04-13T05:56:18.562Z,4.10
2017-04-13T05:57:16.455Z,4.69
2017-04-13T05:58:14.346Z,4.97
2017-04-13T05:59:12.272Z,5.00
2017-04-13T06:00:10.159Z,4.86
2017-04-13T06:01:08.072Z,4.80
2017-04-13T06:02:05.986Z,4.76
2017-04-13T06:03:03.915Z,5.17
2017-04-13T06:04:01.824Z,5.03
2017-04-13T06:04:59.729Z,4.37
2017-04-13T06:05:58.496Z,4.67
2017-04-13T06:06:56.391Z,5.27
2017-04-13T06:07:54.310Z,4.36
2017-04-13T06:08:52.198Z,4.70
2017-04-13T06:09:50.135Z,4.46
2017-04-13T06:10:48.074Z,4.87
2017-04-13T06:11:46.034Z,4.51
2017-04-13T06:12:43.983Z,4.11
2017-04-13T06:13:41.946Z,4.57
2017-04-13T06:14:39.935Z,4.90
2017-04-13T06:15:38.041Z,5.17
2017-04-13T06:16:35.899Z,4.46
2017-04-13T06:17:33.778Z,4.81
2017-04-13T06:18:31.703Z,4.90
2017-04-13T06:19:29.649Z,4.53
2017-04-13T06:20:27.592Z,4.51
2017-04-13T06:21:25.529Z,5.13
2017-04-13T06:22:23.498Z,4.74
2017-04-13T06:23:21.509Z,4.57
2017-04-13T06:24:19.466Z,5.09
2017-04-13T06:25:17.363Z,4.90
2017-04-13T06:26:15.338Z,5.50
2017-04-13T06:27:13.343Z,4.80
2017-04-13T06:28:11.301Z,4.96
2017-04-13T06:29:09.205Z,4.31
2017-04-13T06:30:07.098Z,4.57
2017-04-13T06:31:05.027Z,4.36
2017-04-13T06:32:02.975Z,3.74
2017-04-13T06:33:00.920Z,4.56
2017-04-13T06:34:03.682Z,4.24
2017-04-13T06:35:04.068Z,3.73
2017-04-13T06:36:01.969Z,3.77
2017-04-13T06:36:59.899Z,4.01
2017-04-13T06:37:57.799Z,4.06
2017-04-13T06:38:55.726Z,4.09
2017-04-13T06:39:53.661Z,3.87
2017-04-13T06:40:51.769Z,3.97
2017-04-13T06:41:50.926Z,4.23
2017-04-13T06:42:48.824Z,4.40
2017-04-13T06:43:46.752Z,4.64
2017-04-13T06:44:44.723Z,4.74
2017-04-13T06:45:42.659Z,5.21
2017-04-13T06:46:40.618Z,6.00
2017-04-13T06:47:38.514Z,5.29
2017-04-13T06:48:36.489Z,6.74
2017-04-13T06:49:34.401Z,6.59
2017-04-13T06:50:32.330Z,7.47
2017-04-13T06:51:30.339Z,7.23
2017-04-13T06:53:51.522Z,9.40
2017-04-13T06:54:49.475Z,9.40
2017-04-13T06:55:47.419Z,10.40
2017-04-13T06:56:45.440Z,10.00
2017-04-13T06:57:45.936Z,10.43
2017-04-13T06:58:43.896Z,11.74
2017-04-13T06:59:41.833Z,11.34
2017-04-13T07:00:39.778Z,11.01
2017-04-13T07:01:37.752Z,12.33
2017-04-13T07:02:36.389Z,12.00
2017-04-13T07:03:34.303Z,12.54
2017-04-13T07:04:32.229Z,12.33
2017-04-13T07:05:30.187Z,12.03
2017-04-13T07:06:28.095Z,12.37
2017-04-13T07:07:26.031Z,12.21
2017-04-13T07:08:23.975Z,12.11
2017-04-13T07:09:21.947Z,11.90
2017-04-13T07:10:20.109Z,12.93
2017-04-13T07:11:18.092Z,12.41
2017-04-13T07:12:16.006Z,12.83
2017-04-13T07:13:13.908Z,12.99
2017-04-13T07:14:11.835Z,11.71
2017-04-13T07:15:09.786Z,11.74
2017-04-13T07:16:07.735Z,12.04
2017-04-13T07:17:05.736Z,12.31
2017-04-13T07:18:03.673Z,12.74
2017-04-13T07:19:01.615Z,12.27
2017-04-13T07:19:59.571Z,12.17
2017-04-13T07:20:57.576Z,11.77
2017-04-13T07:21:55.503Z,12.04
2017-04-13T07:22:53.468Z,12.53
2017-04-13T07:23:51.431Z,11.37
2017-04-13T07:24:49.378Z,11.59
2017-04-13T07:25:47.308Z,11.90
2017-04-13T07:26:45.231Z,12.86
2017-04-13T07:27:43.158Z,11.94
2017-04-13T07:28:41.098Z,13.70
2017-04-13T07:29:39.104Z,12.03
2017-04-13T07:30:37.085Z,12.36
2017-04-13T07:31:35.021Z,12.53
2017-04-13T07:32:32.940Z,12.19
2017-04-13T07:33:30.914Z,12.44
2017-04-13T07:34:28.857Z,12.56
2017-04-13T07:35:26.822Z,13.06
2017-04-13T07:36:24.758Z,12.29
2017-04-13T07:37:22.696Z,12.70
2017-04-13T07:38:20.620Z,11.60
2017-04-13T07:39:18.577Z,10.73
2017-04-13T07:40:16.517Z,10.61
2017-04-13T07:41:20.252Z,10.23
2017-04-13T07:42:18.195Z,11.77
2017-04-13T07:43:16.130Z,10.69
2017-04-13T07:44:14.066Z,10.86
2017-04-13T07:45:12.051Z,10.23
2017-04-13T07:46:22.330Z,10.69
2017-04-13T07:48:42.905Z,9.83
2017-04-13T07:49:40.827Z,10.63
2017-04-13T07:50:38.783Z,21.10
2017-04-13T07:51:36.792Z,64.31
2017-04-13T07:52:34.707Z,76.59
2017-04-13T07:53:32.714Z,77.00
2017-04-13T07:54:30.647Z,83.04
2017-04-13T07:55:28.584Z,81.49
2017-04-13T07:56:26.536Z,86.34
2017-04-13T07:57:24.498Z,84.84
2017-04-13T07:58:22.528Z,81.14
2017-04-13T07:59:20.448Z,74.97
2017-04-13T08:00:18.378Z,70.06
2017-04-13T08:01:16.398Z,66.03
2017-04-13T08:02:14.334Z,67.41
2017-04-13T08:03:12.307Z,62.89
2017-04-13T08:04:10.223Z,60.93
2017-04-13T08:05:08.175Z,54.44
2017-04-13T08:06:06.101Z,52.59
2017-04-13T08:07:04.032Z,47.17
2017-04-13T08:08:02.000Z,46.21
2017-04-13T08:09:00.077Z,41.89
2017-04-13T08:09:57.981Z,40.59
2017-04-13T08:10:55.920Z,38.39
2017-04-13T08:11:53.892Z,40.26
2017-04-13T08:12:51.840Z,39.27
2017-04-13T08:13:49.775Z,37.19
2017-04-13T08:14:47.697Z,36.70
2017-04-13T08:15:45.651Z,35.09
2017-04-13T08:16:43.584Z,32.40
2017-04-13T08:17:41.535Z,31.70
2017-04-13T08:18:39.562Z,31.64
2017-04-13T08:19:37.484Z,29.70
2017-04-13T08:20:35.431Z,31.41
2017-04-13T08:21:33.438Z,30.96
2017-04-13T08:22:31.361Z,32.81
2017-04-13T08:23:29.393Z,33.49
2017-04-13T08:24:27.309Z,37.47
2017-04-13T08:25:25.219Z,34.90
2017-04-13T08:26:23.170Z,37.30
2017-04-13T08:27:21.135Z,38.54
2017-04-13T08:28:19.080Z,37.89
2017-04-13T08:29:17.030Z,39.17
2017-04-13T08:30:14.975Z,40.34
2017-04-13T08:31:13.027Z,40.73
2017-04-13T08:32:11.001Z,41.14
2017-04-13T08:33:08.911Z,42.61
2017-04-13T08:34:06.848Z,42.24
2017-04-13T08:35:04.828Z,45.70
2017-04-13T08:36:02.794Z,44.83
2017-04-13T08:37:00.748Z,49.94
2017-04-13T08:37:58.691Z,50.87
2017-04-13T08:38:56.639Z,58.57
2017-04-13T08:39:54.591Z,75.16
2017-04-13T08:40:52.563Z,87.13
2017-04-13T08:41:50.503Z,88.11
2017-04-13T08:42:48.460Z,92.71
2017-04-13T08:43:46.371Z,89.47
2017-04-13T08:44:44.316Z,86.30
2017-04-13T08:45:42.352Z,81.51
2017-04-13T08:46:40.420Z,89.61
2017-04-13T08:47:38.466Z,83.21
2017-04-13T08:48:36.492Z,88.49
2017-04-13T08:49:34.381Z,88.70
2017-04-13T08:50:32.366Z,89.83
2017-04-13T08:51:30.372Z,85.94
2017-04-13T08:52:28.326Z,86.27
2017-04-13T08:53:26.283Z,84.00
2017-04-13T08:54:24.267Z,87.10
2017-04-13T08:55:22.234Z,89.33
2017-04-13T08:56:20.223Z,85.51
2017-04-13T08:57:18.162Z,83.61
2017-04-13T08:58:16.095Z,85.77
2017-04-13T08:59:14.004Z,92.39
2017-04-13T09:00:12.031Z,83.21
2017-04-13T09:01:09.993Z,88.54
2017-04-13T09:02:08.081Z,86.84
2017-04-13T09:03:06.052Z,84.17
2017-04-13T09:04:03.967Z,82.50
2017-04-13T09:05:01.963Z,80.46
2017-04-13T09:07:23.357Z,85.03
2017-04-13T09:08:21.371Z,81.40
2017-04-13T09:09:19.336Z,83.34
2017-04-13T09:10:17.263Z,79.10
2017-04-13T09:11:15.185Z,82.80
2017-04-13T09:12:13.148Z,77.74
2017-04-13T09:13:11.143Z,81.73
2017-04-13T09:14:09.102Z,83.31
2017-04-13T09:15:07.119Z,78.13
2017-04-13T09:16:05.092Z,76.04
2017-04-13T09:17:03.040Z,79.93
2017-04-13T09:18:01.095Z,81.80
2017-04-13T09:18:59.069Z,78.50
2017-04-13T09:19:56.991Z,79.36
2017-04-13T09:20:54.975Z,76.67
2017-04-13T09:21:52.944Z,74.44
2017-04-13T09:22:50.896Z,74.87
2017-04-13T09:23:48.858Z,75.77
2017-04-13T09:24:46.912Z,78.27
2017-04-13T09:25:44.995Z,74.91
2017-04-13T09:26:43.021Z,74.21
2017-04-13T09:27:41.314Z,76.49
2017-04-13T09:28:39.372Z,72.06
2017-04-13T09:29:37.336Z,74.00
2017-04-13T09:30:35.283Z,71.04
2017-04-13T09:31:33.367Z,69.00
2017-04-13T09:32:31.310Z,75.00
2017-04-13T09:33:29.248Z,75.43
2017-04-13T09:34:27.204Z,68.66
2017-04-13T09:35:25.223Z,70.67
2017-04-13T09:36:23.174Z,69.56
2017-04-13T09:37:21.144Z,68.50
2017-04-13T09:38:19.074Z,70.67
2017-04-13T09:39:17.035Z,72.31
2017-04-13T09:40:14.982Z,69.81
2017-04-13T09:41:13.098Z,72.00
2017-04-13T09:42:11.042Z,69.83
2017-04-13T09:43:08.959Z,69.87
2017-04-13T09:44:06.993Z,67.10
2017-04-13T09:45:04.932Z,71.59
2017-04-13T09:46:02.863Z,69.40
2017-04-13T09:47:00.886Z,67.07
2017-04-13T09:47:58.852Z,69.94
2017-04-13T09:48:56.946Z,68.73
2017-04-13T09:49:54.879Z,66.60
2017-04-13T09:52:15.732Z,64.79
2017-04-13T09:53:13.639Z,63.49
2017-04-13T09:54:11.594Z,67.56
2017-04-13T09:55:09.624Z,65.10
2017-04-13T09:56:07.576Z,63.01
2017-04-13T09:57:05.483Z,66.26
2017-04-13T09:58:03.485Z,64.83
2017-04-13T09:59:01.396Z,66.97
2017-04-13T09:59:59.455Z,67.31
2017-04-13T10:00:57.420Z,62.33
2017-04-13T10:01:55.381Z,63.26
2017-04-13T10:02:53.386Z,65.46
2017-04-13T10:03:51.420Z,65.37
2017-04-13T10:04:49.364Z,64.43
2017-04-13T10:05:47.281Z,63.21
2017-04-13T10:06:45.199Z,61.47
2017-04-13T10:07:43.255Z,64.84
2017-04-13T10:08:41.151Z,63.84
2017-04-13T10:09:39.099Z,61.66
2017-04-13T10:10:37.053Z,60.66
2017-04-13T10:11:34.969Z,62.84
2017-04-13T10:12:32.912Z,61.86
2017-04-13T10:13:30.907Z,61.03
2017-04-13T10:14:28.832Z,61.64
2017-04-13T10:15:26.788Z,61.89
2017-04-13T10:16:24.752Z,59.39
2017-04-13T10:17:22.708Z,57.14
2017-04-13T10:18:20.659Z,57.46
2017-04-13T10:19:18.729Z,56.90
2017-04-13T10:20:16.783Z,60.64
2017-04-13T10:21:14.774Z,60.63
2017-04-13T10:22:12.721Z,58.44
2017-04-13T10:23:10.663Z,57.26
2017-04-13T10:24:08.724Z,57.17
2017-04-13T10:25:06.885Z,59.97
2017-04-13T10:26:04.827Z,57.07
2017-04-13T10:27:02.818Z,58.37
2017-04-13T10:28:00.887Z,54.37
2017-04-13T10:28:58.886Z,56.99
2017-04-13T10:29:56.803Z,56.14
2017-04-13T10:30:55.072Z,55.56
2017-04-13T10:31:53.012Z,56.51
2017-04-13T10:32:50.967Z,57.04
2017-04-13T10:33:49.033Z,54.03
2017-04-13T10:34:46.939Z,56.81
2017-04-13T10:35:44.971Z,56.67
2017-04-13T10:36:43.067Z,53.76
2017-04-13T10:37:40.952Z,54.91
2017-04-13T10:38:38.921Z,52.44
2017-04-13T10:39:36.890Z,55.17
2017-04-13T10:40:34.836Z,52.30
2017-04-13T10:41:32.780Z,52.97
2017-04-13T10:42:30.784Z,52.30
2017-04-13T10:43:28.720Z,48.51
2017-04-13T10:44:26.674Z,48.81
2017-04-13T10:45:24.665Z,49.97
2017-04-13T10:46:22.729Z,48.84
2017-04-13T10:47:20.676Z,54.97
2017-04-13T10:48:18.742Z,52.23
2017-04-13T10:49:16.692Z,54.01
2017-04-13T10:50:14.620Z,54.33
2017-04-13T10:51:12.669Z,49.69
2017-04-13T10:52:10.591Z,48.70
2017-04-13T10:53:08.501Z,44.81
2017-04-13T10:54:06.582Z,49.49
2017-04-13T10:55:10.102Z,45.94
2017-04-13T10:56:11.928Z,49.00
2017-04-13T10:57:10.061Z,48.54
2017-04-13T10:58:08.148Z,46.70
2017-04-13T10:59:06.101Z,51.01
2017-04-13T11:00:04.179Z,50.53
2017-04-13T11:01:02.325Z,48.80
2017-04-13T11:02:00.310Z,49.44
2017-04-13T11:02:58.344Z,48.90
2017-04-13T11:03:56.322Z,47.74
2017-04-13T11:04:54.362Z,46.86
2017-04-13T11:05:52.339Z,46.94
2017-04-13T11:06:50.357Z,44.57
2017-04-13T11:07:48.285Z,45.50
2017-04-13T11:08:46.208Z,45.57
2017-04-13T11:09:44.157Z,43.81
2017-04-13T11:10:42.133Z,44.73
2017-04-13T11:11:40.085Z,49.93
2017-04-13T11:12:38.068Z,47.47
2017-04-13T11:13:36.020Z,51.03
2017-04-13T11:14:34.055Z,49.36
2017-04-13T11:15:32.003Z,47.59
2017-04-13T11:16:30.004Z,46.07
2017-04-13T11:17:27.927Z,50.43
2017-04-13T11:18:25.898Z,50.10
2017-04-13T11:19:23.827Z,49.46
2017-04-13T11:20:21.782Z,51.07
2017-04-13T11:21:19.799Z,51.99
2017-04-13T11:22:17.719Z,49.74
2017-04-13T11:23:16.400Z,48.74
2017-04-13T11:24:14.360Z,47.83
2017-04-13T11:25:12.330Z,50.79
2017-04-13T11:26:10.254Z,47.10
2017-04-13T11:27:08.224Z,48.53
2017-04-13T11:28:06.175Z,48.47
2017-04-13T11:29:04.300Z,51.83
2017-04-13T11:30:02.339Z,50.14
2017-04-13T11:31:00.465Z,47.33
2017-04-13T11:31:58.397Z,53.56
2017-04-13T11:32:56.395Z,49.34
2017-04-13T11:33:54.399Z,49.33
2017-04-13T11:34:52.345Z,48.03
2017-04-13T11:35:50.383Z,47.29
2017-04-13T11:36:48.329Z,49.40
2017-04-13T11:37:46.270Z,47.63
2017-04-13T11:38:44.200Z,49.96
2017-04-13T11:39:42.290Z,46.56
2017-04-13T11:40:40.285Z,45.81
2017-04-13T11:41:38.247Z,47.89
2017-04-13T11:42:36.294Z,48.41
2017-04-13T11:43:34.251Z,47.41
2017-04-13T11:44:32.223Z,45.94
2017-04-13T11:45:30.172Z,47.41
2017-04-13T11:46:28.151Z,47.60
2017-04-13T11:47:26.111Z,45.94
2017-04-13T11:48:24.179Z,46.70
2017-04-13T11:49:22.132Z,47.16
2017-04-13T11:50:20.061Z,43.41
2017-04-13T11:51:18.015Z,45.60
2017-04-13T11:52:16.091Z,44.43
2017-04-13T11:53:14.044Z,46.10
2017-04-13T11:54:12.034Z,46.37
2017-04-13T11:55:10.117Z,42.83
2017-04-13T11:56:08.125Z,42.30
2017-04-13T11:57:06.095Z,43.93
2017-04-13T11:58:04.132Z,42.33
2017-04-13T11:59:02.136Z,42.79
2017-04-13T12:00:00.060Z,42.81
2017-04-13T12:00:58.028Z,44.46
2017-04-13T12:01:55.954Z,44.03
2017-04-13T12:02:53.942Z,42.43
2017-04-13T12:03:51.999Z,42.77
2017-04-13T12:04:50.084Z,43.59
2017-04-13T12:05:48.041Z,41.97
2017-04-13T12:06:46.139Z,39.87
2017-04-13T12:07:44.091Z,40.96
2017-04-13T12:08:42.274Z,39.91
2017-04-13T12:09:40.199Z,39.16
2017-04-13T12:10:38.209Z,40.30
2017-04-13T12:11:37.065Z,38.53
2017-04-13T12:12:35.006Z,38.70
2017-04-13T12:13:32.962Z,35.43
2017-04-13T12:14:30.957Z,37.93
2017-04-13T12:15:28.985Z,37.87
2017-04-13T12:16:26.948Z,35.37
2017-04-13T12:17:25.607Z,34.66
2017-04-13T12:18:23.648Z,34.31
2017-04-13T12:19:21.618Z,38.00
2017-04-13T12:20:19.687Z,38.31
2017-04-13T12:21:17.783Z,35.64
2017-04-13T12:22:15.734Z,37.76
2017-04-13T12:23:13.764Z,34.71
2017-04-13T12:24:11.716Z,37.66
2017-04-13T12:25:09.716Z,33.83
2017-04-13T12:26:07.881Z,33.59
2017-04-13T12:27:05.916Z,32.33
2017-04-13T12:28:04.105Z,36.47
2017-04-13T12:29:02.203Z,33.04
2017-04-13T12:30:00.195Z,36.16
2017-04-13T12:30:58.151Z,33.06
2017-04-13T12:31:56.251Z,35.89
2017-04-13T12:32:54.251Z,33.54
2017-04-13T12:33:52.274Z,33.71
2017-04-13T12:34:50.256Z,33.23
2017-04-13T12:35:48.403Z,33.20
2017-04-13T12:36:46.345Z,31.53
2017-04-13T12:37:44.280Z,34.03
2017-04-13T12:38:42.379Z,33.50
2017-04-13T12:39:40.419Z,33.29
2017-04-13T12:40:38.369Z,29.63
2017-04-13T12:41:36.526Z,34.77
2017-04-13T12:42:34.488Z,32.37
2017-04-13T12:43:32.463Z,32.90
2017-04-13T12:44:30.415Z,33.59
2017-04-13T12:45:28.405Z,31.43
2017-04-13T12:46:26.394Z,31.09
2017-04-13T12:47:24.365Z,29.63